createdAt,value
2018-09-11T00:02:03.835Z,17.90
2018-09-11T00:04:32.164Z,17.90
2018-09-11T00:06:59.681Z,17.90
2018-09-11T00:09:27.232Z,17.90
2018-09-11T00:11:55.438Z,17.90
2018-09-11T00:14:22.873Z,17.80
2018-09-11T00:16:50.390Z,17.90
2018-09-11T00:19:17.891Z,17.90
2018-09-11T00:21:45.391Z,17.80
2018-09-11T00:24:12.946Z,17.80
2018-09-11T00:26:40.430Z,17.70
2018-09-11T00:29:07.887Z,17.70
2018-09-11T00:31:35.677Z,17.60
2018-09-11T00:34:03.325Z,17.60
2018-09-11T00:36:30.860Z,17.50
2018-09-11T00:38:58.711Z,17.50
2018-09-11T00:41:26.300Z,17.60
2018-09-11T00:43:53.869Z,17.50
2018-09-11T00:46:21.422Z,17.50
2018-09-11T00:48:49.015Z,17.50
2018-09-11T00:51:20.790Z,17.50
2018-09-11T00:53:48.247Z,17.50
2018-09-11T00:56:15.836Z,17.50
2018-09-11T00:58:43.452Z,17.40
2018-09-11T01:01:10.963Z,17.30
2018-09-11T01:03:38.514Z,17.30
2018-09-11T01:06:06.157Z,17.30
2018-09-11T01:08:33.597Z,17.30
2018-09-11T01:11:01.435Z,17.30
2018-09-11T01:13:28.891Z,17.40
2018-09-11T01:15:56.418Z,17.30
2018-09-11T01:18:23.950Z,17.20
2018-09-11T01:20:51.409Z,17.30
2018-09-11T01:23:18.933Z,17.30
2018-09-11T01:25:46.378Z,17.40
2018-09-11T01:28:14.021Z,17.40
2018-09-11T01:30:41.496Z,17.40
2018-09-11T01:33:09.193Z,17.40
2018-09-11T01:35:36.625Z,17.40
2018-09-11T01:38:04.906Z,17.30
2018-09-11T01:40:32.378Z,17.20
2018-09-11T01:43:00.333Z,17.10
2018-09-11T01:45:27.763Z,17.10
2018-09-11T01:47:55.210Z,17.00
2018-09-11T01:50:22.719Z,17.00
2018-09-11T01:52:50.211Z,16.90
2018-09-11T01:55:17.680Z,16.80
2018-09-11T01:57:45.147Z,16.80
2018-09-11T02:00:19.786Z,16.80
2018-09-11T02:02:47.631Z,16.70
2018-09-11T02:05:15.294Z,16.70
2018-09-11T02:07:43.470Z,16.60
2018-09-11T02:10:11.445Z,16.70
2018-09-11T02:12:38.875Z,16.60
2018-09-11T02:15:06.668Z,16.70
2018-09-11T02:17:34.194Z,16.60
2018-09-11T02:20:01.722Z,16.60
2018-09-11T02:22:29.141Z,16.60
2018-09-11T02:24:56.697Z,16.60
2018-09-11T02:27:24.166Z,16.60
2018-09-11T02:29:51.706Z,16.50
2018-09-11T02:32:19.226Z,16.50
2018-09-11T02:34:46.662Z,16.50
2018-09-11T02:37:14.802Z,16.50
2018-09-11T02:39:42.285Z,16.40
2018-09-11T02:42:09.811Z,16.40
2018-09-11T02:44:37.317Z,16.40
2018-09-11T02:47:04.970Z,16.30
2018-09-11T02:49:32.442Z,16.40
2018-09-11T02:52:00.002Z,16.40
2018-09-11T02:54:27.431Z,16.40
2018-09-11T02:56:54.963Z,16.30
2018-09-11T02:59:22.377Z,16.20
2018-09-11T03:01:49.947Z,16.20
2018-09-11T03:04:17.542Z,16.10
2018-09-11T03:06:45.155Z,16.20
2018-09-11T03:09:12.762Z,16.20
2018-09-11T03:11:40.422Z,16.20
2018-09-11T03:14:07.923Z,16.20
2018-09-11T03:16:35.488Z,16.20
2018-09-11T03:19:03.115Z,16.20
2018-09-11T03:21:30.599Z,16.10
2018-09-11T03:23:58.150Z,16.00
2018-09-11T03:26:25.659Z,16.00
2018-09-11T03:28:53.127Z,16.00
2018-09-11T03:31:20.669Z,15.90
2018-09-11T03:33:48.205Z,15.90
2018-09-11T03:36:15.697Z,15.90
2018-09-11T03:38:43.329Z,15.90
2018-09-11T03:41:11.019Z,15.80
2018-09-11T03:43:38.558Z,15.90
2018-09-11T03:46:06.005Z,15.80
2018-09-11T03:48:33.478Z,15.80
2018-09-11T03:51:01.048Z,15.80
2018-09-11T03:53:32.732Z,15.80
2018-09-11T03:56:00.226Z,15.70
2018-09-11T03:58:27.752Z,15.70
2018-09-11T04:00:55.190Z,15.60
2018-09-11T04:03:22.627Z,15.60
2018-09-11T04:05:50.082Z,15.50
2018-09-11T04:08:17.602Z,15.60
2018-09-11T04:10:45.179Z,15.70
2018-09-11T04:13:12.685Z,15.60
2018-09-11T04:15:40.186Z,15.60
2018-09-11T04:18:07.649Z,15.50
2018-09-11T04:20:35.326Z,15.60
2018-09-11T04:23:02.891Z,15.60
2018-09-11T04:25:30.431Z,15.50
2018-09-11T04:27:57.883Z,15.50
2018-09-11T04:30:25.388Z,15.50
2018-09-11T04:32:52.899Z,15.60
2018-09-11T04:35:20.410Z,15.60
2018-09-11T04:37:47.849Z,15.50
2018-09-11T04:40:15.488Z,15.50
2018-09-11T04:42:43.019Z,15.50
2018-09-11T04:45:10.557Z,15.50
2018-09-11T04:47:38.051Z,15.40
2018-09-11T04:50:05.670Z,15.30
2018-09-11T04:52:33.124Z,15.30
2018-09-11T04:55:00.594Z,15.30
2018-09-11T04:57:28.063Z,15.40
2018-09-11T04:59:55.642Z,15.40
2018-09-11T05:02:23.127Z,15.30
2018-09-11T05:04:50.574Z,15.40
2018-09-11T05:07:18.415Z,15.40
2018-09-11T05:09:45.890Z,15.30
2018-09-11T05:12:13.456Z,15.30
2018-09-11T05:14:40.928Z,15.30
2018-09-11T05:17:08.437Z,15.30
2018-09-11T05:19:35.931Z,15.40
2018-09-11T05:22:03.407Z,15.40
2018-09-11T05:24:30.969Z,15.40
2018-09-11T05:26:58.486Z,15.40
2018-09-11T05:29:25.982Z,15.40
2018-09-11T05:31:53.498Z,15.30
2018-09-11T05:34:21.167Z,15.30
2018-09-11T05:36:48.730Z,15.30
2018-09-11T05:39:16.198Z,15.30
2018-09-11T05:41:43.663Z,15.40
2018-09-11T05:44:11.110Z,15.30
2018-09-11T05:46:38.531Z,15.50
2018-09-11T05:49:06.016Z,15.50
2018-09-11T05:51:33.475Z,15.50
2018-09-11T05:54:00.932Z,15.50
2018-09-11T05:56:28.385Z,15.50
2018-09-11T05:58:55.841Z,15.50
2018-09-11T06:01:23.572Z,15.60
2018-09-11T06:03:51.101Z,15.60
2018-09-11T06:06:18.645Z,15.60
2018-09-11T06:11:25.194Z,15.60
2018-09-11T06:13:52.721Z,15.70
2018-09-11T06:16:20.259Z,15.70
2018-09-11T06:18:47.746Z,15.70
2018-09-11T06:21:15.225Z,15.70
2018-09-11T06:23:42.779Z,15.80
2018-09-11T06:26:10.308Z,15.80
2018-09-11T06:28:37.817Z,15.90
2018-09-11T06:31:05.723Z,16.00
2018-09-11T06:33:33.272Z,16.00
2018-09-11T06:36:00.838Z,16.00
2018-09-11T06:38:28.477Z,16.00
2018-09-11T06:40:56.505Z,16.00
2018-09-11T06:43:24.050Z,16.10
2018-09-11T06:45:51.493Z,16.10
2018-09-11T06:48:18.998Z,16.20
2018-09-11T06:50:46.451Z,16.20
2018-09-11T06:53:13.868Z,16.30
2018-09-11T06:55:41.473Z,16.30
2018-09-11T06:58:13.718Z,16.20
2018-09-11T07:00:41.356Z,16.20
2018-09-11T07:03:08.893Z,16.10
2018-09-11T07:05:38.921Z,16.10
2018-09-11T07:08:18.815Z,16.20
2018-09-11T07:10:48.807Z,16.20
2018-09-11T07:13:19.627Z,16.30
2018-09-11T07:15:58.610Z,16.40
2018-09-11T07:18:28.798Z,16.50
2018-09-11T07:20:57.098Z,16.40
2018-09-11T07:23:27.626Z,16.50
2018-09-11T07:26:13.031Z,16.50
2018-09-11T07:53:12.591Z,16.70
2018-09-11T07:55:40.380Z,17.40
2018-09-11T07:58:31.681Z,17.40
2018-09-11T08:01:13.958Z,17.50
2018-09-11T08:03:47.691Z,17.60
2018-09-11T08:06:26.421Z,17.70
2018-09-11T08:08:57.591Z,17.80
2018-09-11T08:11:27.344Z,17.90
2018-09-11T08:14:09.236Z,18.00
2018-09-11T08:16:43.303Z,18.10
2018-09-11T08:19:22.301Z,18.10
2018-09-11T08:21:58.455Z,18.20
2018-09-11T08:24:28.056Z,18.20
2018-09-11T08:27:01.288Z,18.30
2018-09-11T08:29:37.481Z,18.40
2018-09-11T08:32:10.155Z,18.50
2018-09-11T08:34:46.449Z,18.60
2018-09-11T08:37:15.415Z,18.60
2018-09-11T08:39:44.641Z,18.70
2018-09-11T08:42:13.234Z,18.80
2018-09-11T09:03:43.292Z,19.10
2018-09-11T09:06:27.820Z,20.00
2018-09-11T09:11:40.426Z,20.20
2018-09-11T09:14:13.022Z,20.40
2018-09-11T09:16:48.290Z,20.40
2018-09-11T09:19:30.514Z,20.50
2018-09-11T09:22:02.658Z,20.90
2018-09-11T09:24:56.636Z,20.80
2018-09-11T09:27:39.043Z,20.80
2018-09-11T09:33:08.949Z,21.10
2018-09-11T09:35:55.606Z,21.40
2018-09-11T09:38:47.843Z,21.60
2018-09-11T09:44:21.188Z,22.10
2018-09-11T09:46:58.366Z,21.80
2018-09-11T09:49:33.560Z,22.00
2018-09-11T09:52:24.497Z,22.10
2018-09-11T09:57:57.700Z,22.30
2018-09-11T10:00:34.675Z,22.20
2018-09-11T10:03:26.253Z,22.10
2018-09-11T10:06:08.920Z,22.20
2018-09-11T10:08:42.642Z,22.60
2018-09-11T10:14:15.707Z,22.20
2018-09-11T10:16:46.819Z,22.30
2018-09-11T10:19:24.172Z,22.30
2018-09-11T10:21:54.202Z,22.20
2018-09-11T10:24:32.412Z,22.40
2018-09-11T10:29:48.119Z,22.50
2018-09-11T10:32:36.431Z,22.50
2018-09-11T10:35:19.633Z,22.40
2018-09-11T10:37:51.690Z,22.70
2018-09-11T10:40:21.407Z,22.80
2018-09-11T10:42:54.992Z,22.90
2018-09-11T10:45:27.978Z,23.10
2018-09-11T10:48:15.439Z,23.30
2018-09-11T10:50:54.895Z,23.20
2018-09-11T10:53:41.783Z,23.30
2018-09-11T10:56:33.412Z,23.60
2018-09-11T10:59:06.023Z,23.50
2018-09-11T11:01:42.155Z,23.60
2018-09-11T11:04:36.044Z,23.60
2018-09-11T11:07:08.739Z,23.60
2018-09-11T11:14:59.743Z,23.90
2018-09-11T11:17:39.536Z,23.90
2018-09-11T11:20:37.586Z,23.80
2018-09-11T11:23:26.149Z,23.80
2018-09-11T11:25:58.456Z,23.70
2018-09-11T11:34:30.653Z,23.90
2018-09-11T11:37:02.412Z,24.10
2018-09-11T11:39:45.105Z,24.00
2018-09-11T11:42:20.781Z,24.20
2018-09-11T11:45:13.403Z,24.50
2018-09-11T11:47:58.099Z,24.50
2018-09-11T11:50:31.823Z,24.70
2018-09-11T11:53:02.812Z,24.80
2018-09-11T11:55:34.949Z,24.80
2018-09-11T11:58:05.160Z,24.70
2018-09-11T12:00:33.590Z,25.00
2018-09-11T12:03:06.228Z,25.00
2018-09-11T12:05:39.755Z,25.30
2018-09-11T12:08:12.288Z,25.40
2018-09-11T12:10:44.005Z,25.40
2018-09-11T12:13:17.079Z,25.40
2018-09-11T12:15:44.732Z,25.40
2018-09-11T12:18:17.690Z,25.40
2018-09-11T12:20:53.905Z,25.40
2018-09-11T12:23:29.794Z,25.30
2018-09-11T12:26:03.758Z,25.20
2018-09-11T12:28:39.654Z,25.50
2018-09-11T12:31:13.673Z,25.60
2018-09-11T12:33:49.771Z,25.60
2018-09-11T12:36:19.291Z,25.70
2018-09-11T12:38:49.063Z,25.60
2018-09-11T12:41:34.109Z,25.40
2018-09-11T12:44:02.956Z,25.50
2018-09-11T12:46:35.322Z,25.60
2018-09-11T12:49:06.250Z,25.50
2018-09-11T12:51:36.423Z,25.50
2018-09-11T12:54:15.711Z,25.70
2018-09-11T12:56:54.393Z,25.80
2018-09-11T12:59:25.671Z,25.70
2018-09-11T13:01:56.318Z,25.60
2018-09-11T13:04:28.542Z,25.50
2018-09-11T13:07:03.622Z,25.70
2018-09-11T13:09:42.455Z,25.80
2018-09-11T13:12:17.042Z,26.00
2018-09-11T13:14:46.112Z,26.00
2018-09-11T13:17:13.903Z,25.90
2018-09-11T13:19:45.388Z,26.00
2018-09-11T13:22:25.216Z,25.90
2018-09-11T13:25:02.060Z,26.20
2018-09-11T13:27:36.476Z,26.20
2018-09-11T13:30:06.460Z,26.20
2018-09-11T13:32:48.537Z,26.20
2018-09-11T13:35:26.604Z,26.30
2018-09-11T13:37:58.999Z,26.40
2018-09-11T13:40:28.173Z,26.40
2018-09-11T13:43:04.994Z,26.50
2018-09-11T13:45:36.154Z,26.30
2018-09-11T13:48:10.840Z,26.50
2018-09-11T13:50:40.570Z,26.60
2018-09-11T13:53:22.173Z,26.60
2018-09-11T13:56:04.851Z,26.60
2018-09-11T13:58:36.605Z,26.80
2018-09-11T14:01:05.724Z,26.80
2018-09-11T14:03:41.741Z,26.80
2018-09-11T14:06:10.879Z,26.70
2018-09-11T14:08:43.691Z,26.80
2018-09-11T14:14:09.140Z,26.90
2018-09-11T14:16:42.642Z,26.90
2018-09-11T14:19:15.767Z,27.00
2018-09-11T14:21:44.051Z,27.00
2018-09-11T14:24:21.096Z,27.00
2018-09-11T14:26:52.956Z,27.10
2018-09-11T14:29:33.888Z,27.30
2018-09-11T14:35:09.186Z,27.40
2018-09-11T14:37:42.580Z,27.30
2018-09-11T14:40:11.938Z,27.30
2018-09-11T14:42:45.098Z,27.40
2018-09-11T14:45:20.631Z,27.40
2018-09-11T14:48:02.852Z,27.50
2018-09-11T14:50:32.386Z,27.80
2018-09-11T14:53:04.425Z,27.60
2018-09-11T14:55:33.567Z,27.80
2018-09-11T14:58:06.370Z,27.60
2018-09-11T15:00:41.297Z,27.70
2018-09-11T15:03:10.179Z,27.80
2018-09-11T15:05:43.304Z,27.90
2018-09-11T15:08:14.334Z,27.90
2018-09-11T15:10:56.391Z,27.90
2018-09-11T15:13:27.968Z,27.80
2018-09-11T15:16:08.595Z,28.00
2018-09-11T15:18:37.766Z,27.90
2018-09-11T15:21:15.401Z,27.80
2018-09-11T15:23:43.143Z,27.80
2018-09-11T15:26:15.661Z,27.80
2018-09-11T15:28:59.054Z,27.80
2018-09-11T15:31:37.434Z,27.80
2018-09-11T15:34:08.318Z,27.70
2018-09-11T15:36:56.991Z,27.70
2018-09-11T15:39:36.387Z,27.60
2018-09-11T15:42:05.579Z,27.50
2018-09-11T15:44:35.392Z,27.60
2018-09-11T15:47:14.042Z,27.60
2018-09-11T15:49:43.615Z,27.50
2018-09-11T15:52:12.910Z,27.40
2018-09-11T15:54:56.550Z,27.50
2018-09-11T15:57:33.755Z,27.40
2018-09-11T16:00:22.355Z,27.40
2018-09-11T16:02:55.279Z,27.30
2018-09-11T16:08:06.760Z,27.60
2018-09-11T16:10:50.891Z,27.50
2018-09-11T16:13:22.181Z,27.60
2018-09-11T16:15:56.774Z,27.30
2018-09-11T16:18:24.687Z,27.30
2018-09-11T16:20:54.709Z,27.10
2018-09-11T16:23:25.079Z,27.00
2018-09-11T16:26:05.061Z,26.90
2018-09-11T16:28:36.528Z,26.80
2018-09-11T16:31:06.271Z,26.70
2018-09-11T16:33:37.034Z,26.80
2018-09-11T16:36:08.418Z,26.90
2018-09-11T16:38:37.863Z,26.90
2018-09-11T16:41:15.400Z,27.00
2018-09-11T16:43:44.106Z,27.00
2018-09-11T16:46:19.883Z,26.90
2018-09-11T16:48:48.690Z,26.70
2018-09-11T16:51:22.263Z,26.80
2018-09-11T16:53:50.556Z,26.90
2018-09-11T16:56:18.880Z,26.80
2018-09-11T16:58:53.608Z,26.70
2018-09-11T17:01:22.228Z,26.60
2018-09-11T17:03:52.710Z,26.60
2018-09-11T17:06:36.526Z,26.60
2018-09-11T17:09:08.279Z,26.50
2018-09-11T17:11:45.268Z,26.50
2018-09-11T17:17:11.957Z,26.40
2018-09-11T17:19:42.409Z,26.30
2018-09-11T17:22:18.208Z,26.20
2018-09-11T17:28:10.704Z,26.00
2018-09-11T17:30:39.415Z,25.80
2018-09-11T17:33:08.272Z,25.70
2018-09-11T17:35:43.451Z,25.60
2018-09-11T17:38:25.382Z,25.50
2018-09-11T17:41:01.625Z,25.50
2018-09-11T17:43:57.372Z,25.50
2018-09-11T17:46:30.145Z,25.50
2018-09-11T17:49:04.491Z,25.20
2018-09-11T17:51:34.662Z,24.90
2018-09-11T17:54:09.247Z,24.90
2018-09-11T17:56:43.152Z,24.80
2018-09-11T17:59:13.507Z,24.70
2018-09-11T18:04:26.376Z,24.60
2018-09-11T18:07:00.759Z,24.50
2018-09-11T18:09:29.025Z,24.50
2018-09-11T18:12:00.591Z,24.50
2018-09-11T18:14:41.508Z,24.30
2018-09-11T18:17:10.502Z,24.40
2018-09-11T18:19:39.965Z,24.40
2018-09-11T18:22:15.109Z,24.20
2018-09-11T18:24:59.268Z,24.20
2018-09-11T18:27:29.881Z,24.00
2018-09-11T18:30:09.199Z,24.00
2018-09-11T18:32:40.278Z,23.80
2018-09-11T18:35:11.935Z,23.70
2018-09-11T18:37:45.059Z,23.60
2018-09-11T18:43:04.701Z,23.40
2018-09-11T18:45:34.837Z,23.00
2018-09-11T18:48:16.878Z,23.10
2018-09-11T18:50:55.545Z,23.00
2018-09-11T18:53:41.485Z,22.90
2018-09-11T18:56:18.793Z,22.80
2018-09-11T18:58:59.511Z,22.70
2018-09-11T19:01:30.871Z,22.50
2018-09-11T19:04:09.801Z,22.30
2018-09-11T19:06:38.258Z,22.20
2018-09-11T19:09:10.434Z,22.00
2018-09-11T19:11:38.938Z,22.00
2018-09-11T19:14:12.554Z,21.90
2018-09-11T19:16:42.515Z,21.90
2018-09-11T19:19:13.561Z,21.80
2018-09-11T19:21:41.747Z,21.70
2018-09-11T19:24:09.411Z,21.60
2018-09-11T19:26:43.040Z,21.60
2018-09-11T19:29:12.889Z,21.60
2018-09-11T19:31:46.362Z,21.50
2018-09-11T19:34:21.642Z,21.40
2018-09-11T19:36:50.242Z,21.30
2018-09-11T19:39:24.155Z,21.30
2018-09-11T19:41:52.775Z,21.30
2018-09-11T19:44:21.306Z,21.30
2018-09-11T19:46:55.099Z,21.30
2018-09-11T19:49:23.887Z,21.30
2018-09-11T19:51:51.683Z,21.30
2018-09-11T19:54:20.875Z,21.30
2018-09-11T19:56:50.019Z,21.30
2018-09-11T19:59:19.821Z,21.20
2018-09-11T20:01:52.097Z,21.20
2018-09-11T20:04:22.347Z,21.10
2018-09-11T20:06:51.352Z,21.10
2018-09-11T20:09:18.771Z,21.10
2018-09-11T20:11:46.278Z,21.00
2018-09-11T20:14:13.720Z,21.00
2018-09-11T20:16:41.198Z,20.90
2018-09-11T20:19:08.792Z,20.90
2018-09-11T20:21:36.278Z,20.90
2018-09-11T20:24:03.811Z,20.80
2018-09-11T20:26:31.746Z,20.70
2018-09-11T20:28:59.266Z,20.70
2018-09-11T20:31:26.734Z,20.70
2018-09-11T20:33:54.302Z,20.60
2018-09-11T20:36:21.802Z,20.60
2018-09-11T20:38:49.275Z,20.60
2018-09-11T20:41:16.785Z,20.60
2018-09-11T20:43:44.319Z,20.50
2018-09-11T20:46:11.785Z,20.50
2018-09-11T20:48:39.318Z,20.50
2018-09-11T20:51:06.867Z,20.50
2018-09-11T20:53:34.538Z,20.40
2018-09-11T20:56:02.236Z,20.40
2018-09-11T20:58:29.631Z,20.40
2018-09-11T21:00:57.139Z,20.30
2018-09-11T21:03:24.618Z,20.20
2018-09-11T21:05:52.141Z,20.30
2018-09-11T21:08:19.600Z,20.10
2018-09-11T21:10:47.118Z,20.10
2018-09-11T21:13:14.563Z,20.00
2018-09-11T21:15:42.192Z,20.00
2018-09-11T21:18:09.654Z,19.90
2018-09-11T21:20:37.387Z,19.90
2018-09-11T21:23:05.102Z,19.90
2018-09-11T21:25:32.566Z,19.80
2018-09-11T21:28:00.067Z,19.70
2018-09-11T21:30:27.578Z,19.80
2018-09-11T21:32:55.041Z,19.70
2018-09-11T21:35:22.503Z,19.70
2018-09-11T21:37:50.114Z,19.70
2018-09-11T21:40:17.790Z,19.60
2018-09-11T21:42:45.394Z,19.70
2018-09-11T21:45:13.199Z,19.60
2018-09-11T21:47:41.637Z,19.50
2018-09-11T21:50:09.091Z,19.50
2018-09-11T21:52:36.671Z,19.50
2018-09-11T21:55:04.587Z,19.40
2018-09-11T21:57:32.090Z,19.40
2018-09-11T21:59:59.527Z,19.30
2018-09-11T22:02:26.994Z,19.20
2018-09-11T22:04:54.422Z,19.20
2018-09-11T22:07:21.950Z,19.20
2018-09-11T22:09:49.394Z,19.20
2018-09-11T22:12:16.891Z,19.20
2018-09-11T22:14:44.368Z,19.10
2018-09-11T22:17:12.880Z,19.10
2018-09-11T22:19:40.844Z,19.00
2018-09-11T22:22:08.394Z,19.00
2018-09-11T22:24:35.924Z,19.00
2018-09-11T22:27:03.480Z,19.00
2018-09-11T22:29:31.002Z,18.90
2018-09-11T22:31:58.493Z,18.90
2018-09-11T22:34:26.627Z,18.80
2018-09-11T22:36:54.150Z,18.80
2018-09-11T22:39:21.653Z,18.80
2018-09-11T22:41:49.184Z,18.80
2018-09-11T22:44:16.699Z,18.80
2018-09-11T22:46:44.197Z,18.80
2018-09-11T22:49:11.681Z,18.80
2018-09-11T22:51:39.131Z,18.70
2018-09-11T22:54:06.618Z,18.70
2018-09-11T22:56:34.058Z,18.70
2018-09-11T22:59:01.583Z,18.60
2018-09-11T23:01:29.065Z,18.50
2018-09-11T23:03:56.567Z,18.70
2018-09-11T23:06:24.154Z,18.60
2018-09-11T23:08:51.639Z,18.50
2018-09-11T23:11:19.090Z,18.40
2018-09-11T23:13:46.864Z,18.30
2018-09-11T23:16:14.273Z,18.40
2018-09-11T23:18:41.754Z,18.50
2018-09-11T23:21:09.237Z,18.50
2018-09-11T23:23:36.849Z,18.40
2018-09-11T23:26:04.341Z,18.40
2018-09-11T23:28:31.813Z,18.30
2018-09-11T23:30:59.470Z,18.30
2018-09-11T23:33:27.014Z,18.20
2018-09-11T23:35:54.493Z,18.30
2018-09-11T23:38:22.014Z,18.20
2018-09-11T23:40:49.530Z,18.10
2018-09-11T23:43:17.022Z,18.10
2018-09-11T23:45:44.494Z,18.10
2018-09-11T23:48:12.092Z,18.10
2018-09-11T23:50:39.575Z,18.10
2018-09-11T23:53:07.149Z,18.00
2018-09-11T23:55:34.656Z,18.00
2018-09-11T23:58:02.199Z,17.90
